sensor_id;sensor_type;location;lat;lon;timestamp;P1;durP1;ratioP1;P2;durP2;ratioP2
61017;SDS011;48171;51.550;5.434;2022-10-31T00:00:26;27.08;;;12.82;;
61017;SDS011;48171;51.550;5.434;2022-10-31T00:02:51;27.08;;;13.30;;
61017;SDS011;48171;51.550;5.434;2022-10-31T00:05:16;29.48;;;12.93;;
61017;SDS011;48171;51.550;5.434;2022-10-31T00:07:41;25.17;;;12.30;;
61017;SDS011;48171;51.550;5.434;2022-10-31T00:10:07;25.52;;;12.57;;
61017;SDS011;48171;51.550;5.434;2022-10-31T00:12:33;27.73;;;12.38;;
61017;SDS011;48171;51.550;5.434;2022-10-31T00:14:58;25.73;;;11.73;;
61017;SDS011;48171;51.550;5.434;2022-10-31T00:17:23;27.30;;;12.73;;
61017;SDS011;48171;51.550;5.434;2022-10-31T00:19:48;25.23;;;12.35;;
61017;SDS011;48171;51.550;5.434;2022-10-31T00:22:14;24.30;;;11.48;;
61017;SDS011;48171;51.550;5.434;2022-10-31T00:24:39;24.83;;;11.57;;
61017;SDS011;48171;51.550;5.434;2022-10-31T00:27:04;21.75;;;11.45;;
61017;SDS011;48171;51.550;5.434;2022-10-31T00:29:30;28.52;;;12.43;;
61017;SDS011;48171;51.550;5.434;2022-10-31T00:31:55;25.58;;;12.68;;
61017;SDS011;48171;51.550;5.434;2022-10-31T00:34:20;26.45;;;13.35;;
61017;SDS011;48171;51.550;5.434;2022-10-31T00:36:45;27.42;;;12.60;;
61017;SDS011;48171;51.550;5.434;2022-10-31T00:39:11;29.20;;;13.35;;
61017;SDS011;48171;51.550;5.434;2022-10-31T00:41:36;27.23;;;12.02;;
61017;SDS011;48171;51.550;5.434;2022-10-31T00:44:01;26.33;;;13.30;;
61017;SDS011;48171;51.550;5.434;2022-10-31T00:46:26;28.58;;;12.93;;
61017;SDS011;48171;51.550;5.434;2022-10-31T00:48:52;27.48;;;13.38;;
61017;SDS011;48171;51.550;5.434;2022-10-31T00:51:17;29.02;;;13.93;;
61017;SDS011;48171;51.550;5.434;2022-10-31T00:53:42;30.70;;;14.05;;
61017;SDS011;48171;51.550;5.434;2022-10-31T00:56:08;24.67;;;12.95;;
61017;SDS011;48171;51.550;5.434;2022-10-31T00:58:33;26.10;;;13.50;;
61017;SDS011;48171;51.550;5.434;2022-10-31T01:00:58;27.73;;;12.90;;
61017;SDS011;48171;51.550;5.434;2022-10-31T01:03:24;26.23;;;12.48;;
61017;SDS011;48171;51.550;5.434;2022-10-31T01:06:10;25.67;;;12.77;;
61017;SDS011;48171;51.550;5.434;2022-10-31T01:08:37;32.25;;;13.63;;
61017;SDS011;48171;51.550;5.434;2022-10-31T01:11:16;31.15;;;13.57;;
61017;SDS011;48171;51.550;5.434;2022-10-31T01:13:44;24.30;;;12.95;;
61017;SDS011;48171;51.550;5.434;2022-10-31T01:16:11;29.92;;;14.13;;
61017;SDS011;48171;51.550;5.434;2022-10-31T01:18:42;27.65;;;13.77;;
61017;SDS011;48171;51.550;5.434;2022-10-31T01:21:12;27.25;;;13.77;;
61017;SDS011;48171;51.550;5.434;2022-10-31T01:23:42;27.75;;;13.52;;
61017;SDS011;48171;51.550;5.434;2022-10-31T01:26:14;26.73;;;13.75;;
61017;SDS011;48171;51.550;5.434;2022-10-31T01:28:52;24.58;;;13.50;;
61017;SDS011;48171;51.550;5.434;2022-10-31T01:31:17;31.10;;;13.57;;
61017;SDS011;48171;51.550;5.434;2022-10-31T01:33:44;26.55;;;13.90;;
61017;SDS011;48171;51.550;5.434;2022-10-31T01:36:13;25.48;;;13.50;;
61017;SDS011;48171;51.550;5.434;2022-10-31T01:38:40;24.67;;;13.38;;
61017;SDS011;48171;51.550;5.434;2022-10-31T01:41:06;25.00;;;13.05;;
61017;SDS011;48171;51.550;5.434;2022-10-31T01:43:46;26.27;;;12.98;;
61017;SDS011;48171;51.550;5.434;2022-10-31T01:46:26;25.48;;;13.13;;
61017;SDS011;48171;51.550;5.434;2022-10-31T01:49:02;27.33;;;13.35;;
61017;SDS011;48171;51.550;5.434;2022-10-31T01:51:32;24.90;;;12.50;;
61017;SDS011;48171;51.550;5.434;2022-10-31T01:54:02;24.50;;;12.55;;
61017;SDS011;48171;51.550;5.434;2022-10-31T01:56:34;26.75;;;13.93;;
61017;SDS011;48171;51.550;5.434;2022-10-31T01:59:04;23.80;;;12.98;;
61017;SDS011;48171;51.550;5.434;2022-10-31T02:01:32;28.13;;;13.60;;
61017;SDS011;48171;51.550;5.434;2022-10-31T02:03:57;27.98;;;13.50;;
61017;SDS011;48171;51.550;5.434;2022-10-31T02:06:26;23.83;;;13.13;;
61017;SDS011;48171;51.550;5.434;2022-10-31T02:08:54;26.95;;;13.07;;
61017;SDS011;48171;51.550;5.434;2022-10-31T02:11:21;25.63;;;12.65;;
61017;SDS011;48171;51.550;5.434;2022-10-31T02:13:47;21.92;;;13.00;;
61017;SDS011;48171;51.550;5.434;2022-10-31T02:16:12;25.50;;;12.77;;
61017;SDS011;48171;51.550;5.434;2022-10-31T02:18:38;23.70;;;11.57;;
61017;SDS011;48171;51.550;5.434;2022-10-31T02:21:07;24.00;;;11.93;;
61017;SDS011;48171;51.550;5.434;2022-10-31T02:27:00;25.80;;;12.20;;
61017;SDS011;48171;51.550;5.434;2022-10-31T02:32:28;24.75;;;11.05;;
61017;SDS011;48171;51.550;5.434;2022-10-31T02:40:48;23.25;;;12.57;;
61017;SDS011;48171;51.550;5.434;2022-10-31T02:43:22;17.88;;;10.15;;
61017;SDS011;48171;51.550;5.434;2022-10-31T02:48:36;18.90;;;10.07;;
61017;SDS011;48171;51.550;5.434;2022-10-31T02:51:04;17.77;;;9.85;;
61017;SDS011;48171;51.550;5.434;2022-10-31T02:53:34;21.85;;;11.20;;
61017;SDS011;48171;51.550;5.434;2022-10-31T02:58:26;19.60;;;10.60;;
61017;SDS011;48171;51.550;5.434;2022-10-31T03:03:47;16.15;;;9.25;;
61017;SDS011;48171;51.550;5.434;2022-10-31T03:06:30;17.38;;;9.90;;
61017;SDS011;48171;51.550;5.434;2022-10-31T03:09:07;18.63;;;10.30;;
61017;SDS011;48171;51.550;5.434;2022-10-31T03:11:46;20.80;;;10.77;;
61017;SDS011;48171;51.550;5.434;2022-10-31T03:14:22;18.20;;;9.95;;
61017;SDS011;48171;51.550;5.434;2022-10-31T03:16:55;17.67;;;9.93;;
61017;SDS011;48171;51.550;5.434;2022-10-31T03:19:28;21.80;;;10.90;;
61017;SDS011;48171;51.550;5.434;2022-10-31T03:22:05;19.38;;;10.18;;
61017;SDS011;48171;51.550;5.434;2022-10-31T03:24:36;19.10;;;10.15;;
61017;SDS011;48171;51.550;5.434;2022-10-31T03:27:03;18.20;;;9.95;;
61017;SDS011;48171;51.550;5.434;2022-10-31T03:29:33;18.30;;;10.07;;
61017;SDS011;48171;51.550;5.434;2022-10-31T03:32:02;21.30;;;11.20;;
61017;SDS011;48171;51.550;5.434;2022-10-31T03:34:31;23.25;;;10.98;;
61017;SDS011;48171;51.550;5.434;2022-10-31T03:36:57;19.48;;;10.63;;
61017;SDS011;48171;51.550;5.434;2022-10-31T03:39:26;20.98;;;11.10;;
61017;SDS011;48171;51.550;5.434;2022-10-31T03:41:54;17.08;;;9.88;;
61017;SDS011;48171;51.550;5.434;2022-10-31T03:44:25;17.20;;;9.63;;
61017;SDS011;48171;51.550;5.434;2022-10-31T03:46:52;16.77;;;9.45;;
61017;SDS011;48171;51.550;5.434;2022-10-31T03:49:18;17.60;;;9.55;;
61017;SDS011;48171;51.550;5.434;2022-10-31T03:51:45;20.48;;;10.18;;
61017;SDS011;48171;51.550;5.434;2022-10-31T03:57:08;20.38;;;10.02;;
61017;SDS011;48171;51.550;5.434;2022-10-31T03:59:41;18.35;;;10.48;;
61017;SDS011;48171;51.550;5.434;2022-10-31T04:02:16;18.77;;;9.80;;
61017;SDS011;48171;51.550;5.434;2022-10-31T04:04:44;18.52;;;10.48;;
61017;SDS011;48171;51.550;5.434;2022-10-31T04:07:12;17.10;;;9.57;;
61017;SDS011;48171;51.550;5.434;2022-10-31T04:09:39;19.38;;;10.68;;
61017;SDS011;48171;51.550;5.434;2022-10-31T04:12:08;19.17;;;10.13;;
61017;SDS011;48171;51.550;5.434;2022-10-31T04:14:39;21.85;;;11.02;;
61017;SDS011;48171;51.550;5.434;2022-10-31T04:17:07;21.85;;;10.63;;
61017;SDS011;48171;51.550;5.434;2022-10-31T04:19:36;18.35;;;10.02;;
61017;SDS011;48171;51.550;5.434;2022-10-31T04:22:01;17.75;;;9.70;;
61017;SDS011;48171;51.550;5.434;2022-10-31T04:24:27;22.60;;;11.32;;
61017;SDS011;48171;51.550;5.434;2022-10-31T04:26:52;23.77;;;10.73;;
61017;SDS011;48171;51.550;5.434;2022-10-31T04:29:17;18.70;;;9.65;;
61017;SDS011;48171;51.550;5.434;2022-10-31T04:31:43;19.13;;;10.10;;
61017;SDS011;48171;51.550;5.434;2022-10-31T04:34:08;21.42;;;10.50;;
61017;SDS011;48171;51.550;5.434;2022-10-31T04:36:33;24.85;;;11.35;;
61017;SDS011;48171;51.550;5.434;2022-10-31T04:38:58;24.58;;;11.23;;
61017;SDS011;48171;51.550;5.434;2022-10-31T04:41:24;17.52;;;9.98;;
61017;SDS011;48171;51.550;5.434;2022-10-31T04:43:49;22.02;;;10.52;;
61017;SDS011;48171;51.550;5.434;2022-10-31T04:46:14;19.23;;;10.30;;
61017;SDS011;48171;51.550;5.434;2022-10-31T04:48:40;18.55;;;10.15;;
61017;SDS011;48171;51.550;5.434;2022-10-31T04:51:05;18.98;;;9.77;;
61017;SDS011;48171;51.550;5.434;2022-10-31T04:53:30;22.00;;;10.27;;
61017;SDS011;48171;51.550;5.434;2022-10-31T04:55:57;16.90;;;10.63;;
61017;SDS011;48171;51.550;5.434;2022-10-31T04:58:24;20.70;;;10.48;;
61017;SDS011;48171;51.550;5.434;2022-10-31T05:00:53;20.15;;;10.50;;
61017;SDS011;48171;51.550;5.434;2022-10-31T05:03:20;24.23;;;10.57;;
61017;SDS011;48171;51.550;5.434;2022-10-31T05:05:45;18.25;;;10.18;;
61017;SDS011;48171;51.550;5.434;2022-10-31T05:08:10;19.55;;;10.10;;
61017;SDS011;48171;51.550;5.434;2022-10-31T05:10:36;19.60;;;10.38;;
61017;SDS011;48171;51.550;5.434;2022-10-31T05:13:01;21.73;;;10.52;;
61017;SDS011;48171;51.550;5.434;2022-10-31T05:15:28;21.00;;;10.65;;
61017;SDS011;48171;51.550;5.434;2022-10-31T05:17:54;25.98;;;11.93;;
61017;SDS011;48171;51.550;5.434;2022-10-31T05:20:20;24.85;;;11.85;;
61017;SDS011;48171;51.550;5.434;2022-10-31T05:22:47;20.38;;;10.65;;
61017;SDS011;48171;51.550;5.434;2022-10-31T05:25:14;18.27;;;10.57;;
61017;SDS011;48171;51.550;5.434;2022-10-31T05:27:41;22.42;;;11.63;;
61017;SDS011;48171;51.550;5.434;2022-10-31T05:30:09;21.77;;;11.57;;
61017;SDS011;48171;51.550;5.434;2022-10-31T05:32:42;24.35;;;11.82;;
61017;SDS011;48171;51.550;5.434;2022-10-31T05:35:11;19.90;;;11.07;;
61017;SDS011;48171;51.550;5.434;2022-10-31T05:37:38;21.70;;;10.82;;
61017;SDS011;48171;51.550;5.434;2022-10-31T05:40:05;23.60;;;11.40;;
61017;SDS011;48171;51.550;5.434;2022-10-31T05:42:32;22.27;;;11.98;;
61017;SDS011;48171;51.550;5.434;2022-10-31T05:44:57;21.23;;;11.40;;
61017;SDS011;48171;51.550;5.434;2022-10-31T05:47:22;19.88;;;10.73;;
61017;SDS011;48171;51.550;5.434;2022-10-31T05:49:48;22.50;;;11.45;;
61017;SDS011;48171;51.550;5.434;2022-10-31T05:52:13;20.48;;;10.73;;
61017;SDS011;48171;51.550;5.434;2022-10-31T05:54:39;20.50;;;10.70;;
61017;SDS011;48171;51.550;5.434;2022-10-31T05:57:04;18.35;;;9.90;;
61017;SDS011;48171;51.550;5.434;2022-10-31T05:59:29;20.77;;;11.13;;
61017;SDS011;48171;51.550;5.434;2022-10-31T06:01:55;22.55;;;11.85;;
61017;SDS011;48171;51.550;5.434;2022-10-31T06:04:20;20.15;;;11.32;;
61017;SDS011;48171;51.550;5.434;2022-10-31T06:06:45;21.13;;;11.13;;
61017;SDS011;48171;51.550;5.434;2022-10-31T06:09:11;19.70;;;10.63;;
61017;SDS011;48171;51.550;5.434;2022-10-31T06:11:36;20.48;;;10.98;;
61017;SDS011;48171;51.550;5.434;2022-10-31T06:14:01;20.40;;;11.27;;
61017;SDS011;48171;51.550;5.434;2022-10-31T06:16:27;21.10;;;11.75;;
61017;SDS011;48171;51.550;5.434;2022-10-31T06:18:52;20.45;;;11.43;;
61017;SDS011;48171;51.550;5.434;2022-10-31T06:21:17;24.02;;;12.88;;
61017;SDS011;48171;51.550;5.434;2022-10-31T06:23:43;23.05;;;12.07;;
61017;SDS011;48171;51.550;5.434;2022-10-31T06:26:08;23.85;;;12.75;;
61017;SDS011;48171;51.550;5.434;2022-10-31T06:28:33;24.10;;;12.32;;
61017;SDS011;48171;51.550;5.434;2022-10-31T06:30:58;25.20;;;13.48;;
61017;SDS011;48171;51.550;5.434;2022-10-31T06:33:24;29.73;;;13.98;;
61017;SDS011;48171;51.550;5.434;2022-10-31T06:35:49;28.23;;;14.68;;
61017;SDS011;48171;51.550;5.434;2022-10-31T06:38:14;29.05;;;15.68;;
61017;SDS011;48171;51.550;5.434;2022-10-31T06:40:40;32.60;;;15.15;;
61017;SDS011;48171;51.550;5.434;2022-10-31T06:43:06;29.88;;;15.50;;
61017;SDS011;48171;51.550;5.434;2022-10-31T06:45:31;33.40;;;15.85;;
61017;SDS011;48171;51.550;5.434;2022-10-31T06:47:57;35.10;;;16.20;;
61017;SDS011;48171;51.550;5.434;2022-10-31T06:50:22;30.90;;;14.80;;
61017;SDS011;48171;51.550;5.434;2022-10-31T06:52:51;34.30;;;14.15;;
61017;SDS011;48171;51.550;5.434;2022-10-31T06:55:22;40.53;;;15.00;;
61017;SDS011;48171;51.550;5.434;2022-10-31T06:57:52;28.70;;;14.23;;
61017;SDS011;48171;51.550;5.434;2022-10-31T07:00:19;25.83;;;13.98;;
61017;SDS011;48171;51.550;5.434;2022-10-31T07:02:52;29.80;;;14.40;;
61017;SDS011;48171;51.550;5.434;2022-10-31T07:05:28;25.83;;;14.27;;
61017;SDS011;48171;51.550;5.434;2022-10-31T07:07:55;23.05;;;13.27;;
61017;SDS011;48171;51.550;5.434;2022-10-31T07:12:54;23.25;;;13.18;;
61017;SDS011;48171;51.550;5.434;2022-10-31T07:15:20;25.52;;;14.27;;
61017;SDS011;48171;51.550;5.434;2022-10-31T07:17:45;27.13;;;14.07;;
61017;SDS011;48171;51.550;5.434;2022-10-31T07:20:10;25.38;;;13.75;;
61017;SDS011;48171;51.550;5.434;2022-10-31T07:22:36;23.45;;;13.43;;
61017;SDS011;48171;51.550;5.434;2022-10-31T07:25:02;24.80;;;14.18;;
61017;SDS011;48171;51.550;5.434;2022-10-31T07:27:28;24.80;;;14.00;;
61017;SDS011;48171;51.550;5.434;2022-10-31T07:29:53;27.33;;;14.88;;
61017;SDS011;48171;51.550;5.434;2022-10-31T07:32:18;29.35;;;15.27;;
61017;SDS011;48171;51.550;5.434;2022-10-31T07:34:43;27.98;;;16.13;;
61017;SDS011;48171;51.550;5.434;2022-10-31T07:37:09;33.05;;;16.75;;
61017;SDS011;48171;51.550;5.434;2022-10-31T07:39:34;32.67;;;17.42;;
61017;SDS011;48171;51.550;5.434;2022-10-31T07:41:59;33.13;;;17.60;;
61017;SDS011;48171;51.550;5.434;2022-10-31T07:44:25;31.00;;;16.83;;
61017;SDS011;48171;51.550;5.434;2022-10-31T07:46:50;33.72;;;18.42;;
61017;SDS011;48171;51.550;5.434;2022-10-31T07:49:15;35.30;;;18.85;;
61017;SDS011;48171;51.550;5.434;2022-10-31T07:51:40;33.70;;;17.27;;
61017;SDS011;48171;51.550;5.434;2022-10-31T07:54:06;34.00;;;18.75;;
61017;SDS011;48171;51.550;5.434;2022-10-31T07:56:31;35.15;;;18.38;;
61017;SDS011;48171;51.550;5.434;2022-10-31T07:58:56;33.40;;;18.13;;
61017;SDS011;48171;51.550;5.434;2022-10-31T08:01:21;36.35;;;20.10;;
61017;SDS011;48171;51.550;5.434;2022-10-31T08:03:47;34.33;;;18.58;;
61017;SDS011;48171;51.550;5.434;2022-10-31T08:06:12;36.47;;;19.83;;
61017;SDS011;48171;51.550;5.434;2022-10-31T08:08:37;36.17;;;19.23;;
61017;SDS011;48171;51.550;5.434;2022-10-31T08:11:02;39.05;;;20.88;;
61017;SDS011;48171;51.550;5.434;2022-10-31T08:13:28;38.85;;;21.27;;
61017;SDS011;48171;51.550;5.434;2022-10-31T08:15:53;40.03;;;22.05;;
61017;SDS011;48171;51.550;5.434;2022-10-31T08:18:19;48.95;;;23.98;;
61017;SDS011;48171;51.550;5.434;2022-10-31T08:20:45;48.92;;;24.45;;
61017;SDS011;48171;51.550;5.434;2022-10-31T08:23:11;56.22;;;26.67;;
61017;SDS011;48171;51.550;5.434;2022-10-31T08:25:37;52.95;;;26.83;;
61017;SDS011;48171;51.550;5.434;2022-10-31T08:28:03;58.20;;;27.88;;
61017;SDS011;48171;51.550;5.434;2022-10-31T08:30:29;54.50;;;27.25;;
61017;SDS011;48171;51.550;5.434;2022-10-31T08:33:00;59.00;;;29.13;;
61017;SDS011;48171;51.550;5.434;2022-10-31T08:35:31;63.80;;;29.33;;
61017;SDS011;48171;51.550;5.434;2022-10-31T08:37:57;67.50;;;29.88;;
61017;SDS011;48171;51.550;5.434;2022-10-31T08:40:23;64.80;;;31.00;;
61017;SDS011;48171;51.550;5.434;2022-10-31T08:43:06;65.65;;;30.35;;
61017;SDS011;48171;51.550;5.434;2022-10-31T08:45:36;66.32;;;30.20;;
61017;SDS011;48171;51.550;5.434;2022-10-31T08:48:05;65.20;;;29.35;;
61017;SDS011;48171;51.550;5.434;2022-10-31T08:50:34;65.07;;;31.48;;
61017;SDS011;48171;51.550;5.434;2022-10-31T08:53:04;68.93;;;31.10;;
61017;SDS011;48171;51.550;5.434;2022-10-31T08:55:32;71.78;;;34.53;;
61017;SDS011;48171;51.550;5.434;2022-10-31T08:57:59;76.47;;;37.20;;
61017;SDS011;48171;51.550;5.434;2022-10-31T09:00:24;83.55;;;37.78;;
61017;SDS011;48171;51.550;5.434;2022-10-31T09:02:57;77.28;;;35.28;;
61017;SDS011;48171;51.550;5.434;2022-10-31T09:05:23;79.00;;;36.45;;
61017;SDS011;48171;51.550;5.434;2022-10-31T09:07:49;77.03;;;33.88;;
61017;SDS011;48171;51.550;5.434;2022-10-31T09:10:14;75.13;;;32.67;;
61017;SDS011;48171;51.550;5.434;2022-10-31T09:12:39;78.15;;;33.67;;
61017;SDS011;48171;51.550;5.434;2022-10-31T09:15:06;70.60;;;32.65;;
61017;SDS011;48171;51.550;5.434;2022-10-31T09:17:32;78.00;;;33.55;;
61017;SDS011;48171;51.550;5.434;2022-10-31T09:19:57;78.97;;;33.78;;
61017;SDS011;48171;51.550;5.434;2022-10-31T09:22:22;72.40;;;33.60;;
61017;SDS011;48171;51.550;5.434;2022-10-31T09:24:48;72.38;;;32.95;;
61017;SDS011;48171;51.550;5.434;2022-10-31T09:27:13;71.68;;;33.78;;
61017;SDS011;48171;51.550;5.434;2022-10-31T09:29:38;65.75;;;31.58;;
61017;SDS011;48171;51.550;5.434;2022-10-31T09:32:03;70.68;;;31.88;;
61017;SDS011;48171;51.550;5.434;2022-10-31T09:34:29;73.57;;;31.63;;
61017;SDS011;48171;51.550;5.434;2022-10-31T09:36:54;71.47;;;32.83;;
61017;SDS011;48171;51.550;5.434;2022-10-31T09:39:19;79.78;;;33.90;;
61017;SDS011;48171;51.550;5.434;2022-10-31T09:50:38;71.43;;;33.15;;
61017;SDS011;48171;51.550;5.434;2022-10-31T09:53:12;72.35;;;34.00;;
61017;SDS011;48171;51.550;5.434;2022-10-31T09:56:00;74.20;;;35.15;;
61017;SDS011;48171;51.550;5.434;2022-10-31T09:58:27;74.63;;;36.03;;
61017;SDS011;48171;51.550;5.434;2022-10-31T10:00:57;78.03;;;34.85;;
61017;SDS011;48171;51.550;5.434;2022-10-31T10:05:58;75.70;;;36.97;;
61017;SDS011;48171;51.550;5.434;2022-10-31T10:08:32;83.45;;;37.22;;
61017;SDS011;48171;51.550;5.434;2022-10-31T10:11:44;80.03;;;36.35;;
61017;SDS011;48171;51.550;5.434;2022-10-31T10:25:20;69.65;;;32.72;;
61017;SDS011;48171;51.550;5.434;2022-10-31T10:31:00;68.60;;;32.00;;
61017;SDS011;48171;51.550;5.434;2022-10-31T10:33:31;73.28;;;32.72;;
61017;SDS011;48171;51.550;5.434;2022-10-31T10:36:01;68.80;;;33.53;;
61017;SDS011;48171;51.550;5.434;2022-10-31T10:38:37;76.35;;;35.42;;
61017;SDS011;48171;51.550;5.434;2022-10-31T10:41:10;79.45;;;35.78;;
61017;SDS011;48171;51.550;5.434;2022-10-31T10:43:39;73.25;;;34.47;;
61017;SDS011;48171;51.550;5.434;2022-10-31T10:46:18;80.93;;;35.13;;
61017;SDS011;48171;51.550;5.434;2022-10-31T10:51:59;89.40;;;37.88;;
61017;SDS011;48171;51.550;5.434;2022-10-31T10:57:35;88.97;;;37.13;;
61017;SDS011;48171;51.550;5.434;2022-10-31T11:00:23;81.53;;;37.42;;
61017;SDS011;48171;51.550;5.434;2022-10-31T11:02:50;81.65;;;36.65;;
61017;SDS011;48171;51.550;5.434;2022-10-31T11:07:50;80.70;;;36.58;;
61017;SDS011;48171;51.550;5.434;2022-10-31T11:10:16;83.75;;;38.70;;
61017;SDS011;48171;51.550;5.434;2022-10-31T11:12:56;90.82;;;40.70;;
61017;SDS011;48171;51.550;5.434;2022-10-31T11:15:27;89.72;;;38.83;;
61017;SDS011;48171;51.550;5.434;2022-10-31T11:17:55;92.38;;;41.90;;
61017;SDS011;48171;51.550;5.434;2022-10-31T11:20:35;90.10;;;41.13;;
61017;SDS011;48171;51.550;5.434;2022-10-31T11:23:05;87.88;;;40.30;;
61017;SDS011;48171;51.550;5.434;2022-10-31T11:25:49;89.05;;;40.38;;
61017;SDS011;48171;51.550;5.434;2022-10-31T11:28:16;89.05;;;39.55;;
61017;SDS011;48171;51.550;5.434;2022-10-31T11:30:45;85.05;;;38.95;;
61017;SDS011;48171;51.550;5.434;2022-10-31T11:33:16;87.15;;;40.17;;
61017;SDS011;48171;51.550;5.434;2022-10-31T11:36:03;92.97;;;40.03;;
61017;SDS011;48171;51.550;5.434;2022-10-31T11:38:41;83.15;;;39.95;;
61017;SDS011;48171;51.550;5.434;2022-10-31T11:41:12;83.00;;;39.35;;
61017;SDS011;48171;51.550;5.434;2022-10-31T11:43:45;82.70;;;38.60;;
61017;SDS011;48171;51.550;5.434;2022-10-31T11:46:17;84.13;;;37.20;;
61017;SDS011;48171;51.550;5.434;2022-10-31T11:48:46;86.10;;;39.08;;
61017;SDS011;48171;51.550;5.434;2022-10-31T11:51:19;85.95;;;38.92;;
61017;SDS011;48171;51.550;5.434;2022-10-31T11:53:54;88.45;;;38.53;;
61017;SDS011;48171;51.550;5.434;2022-10-31T11:56:22;86.22;;;39.15;;
61017;SDS011;48171;51.550;5.434;2022-10-31T11:58:54;86.85;;;40.22;;
61017;SDS011;48171;51.550;5.434;2022-10-31T12:01:25;79.68;;;39.75;;
61017;SDS011;48171;51.550;5.434;2022-10-31T12:04:05;88.50;;;40.17;;
61017;SDS011;48171;51.550;5.434;2022-10-31T12:06:36;84.80;;;38.25;;
61017;SDS011;48171;51.550;5.434;2022-10-31T12:09:14;89.38;;;38.08;;
61017;SDS011;48171;51.550;5.434;2022-10-31T12:11:51;75.95;;;35.13;;
61017;SDS011;48171;51.550;5.434;2022-10-31T12:17:22;71.45;;;35.65;;
61017;SDS011;48171;51.550;5.434;2022-10-31T12:22:58;77.65;;;33.08;;
61017;SDS011;48171;51.550;5.434;2022-10-31T12:33:53;79.97;;;33.95;;
61017;SDS011;48171;51.550;5.434;2022-10-31T12:36:57;71.85;;;34.33;;
61017;SDS011;48171;51.550;5.434;2022-10-31T12:50:40;71.03;;;32.47;;
61017;SDS011;48171;51.550;5.434;2022-10-31T13:01:20;58.42;;;25.75;;
61017;SDS011;48171;51.550;5.434;2022-10-31T13:06:38;56.90;;;25.35;;
61017;SDS011;48171;51.550;5.434;2022-10-31T13:09:09;53.42;;;25.23;;
61017;SDS011;48171;51.550;5.434;2022-10-31T13:11:42;49.20;;;22.52;;
61017;SDS011;48171;51.550;5.434;2022-10-31T13:14:32;51.17;;;23.83;;
61017;SDS011;48171;51.550;5.434;2022-10-31T13:17:03;48.22;;;22.90;;
61017;SDS011;48171;51.550;5.434;2022-10-31T13:19:33;45.65;;;21.00;;
61017;SDS011;48171;51.550;5.434;2022-10-31T13:22:10;44.05;;;20.98;;
61017;SDS011;48171;51.550;5.434;2022-10-31T13:24:50;46.75;;;21.40;;
61017;SDS011;48171;51.550;5.434;2022-10-31T13:27:21;46.95;;;20.70;;
61017;SDS011;48171;51.550;5.434;2022-10-31T13:30:00;52.65;;;22.15;;
61017;SDS011;48171;51.550;5.434;2022-10-31T13:32:35;45.63;;;21.73;;
61017;SDS011;48171;51.550;5.434;2022-10-31T13:35:07;46.75;;;22.30;;
61017;SDS011;48171;51.550;5.434;2022-10-31T13:37:43;47.67;;;21.25;;
61017;SDS011;48171;51.550;5.434;2022-10-31T13:46:23;39.00;;;19.95;;
61017;SDS011;48171;51.550;5.434;2022-10-31T13:54:36;45.85;;;18.10;;
61017;SDS011;48171;51.550;5.434;2022-10-31T13:57:06;36.67;;;17.38;;
61017;SDS011;48171;51.550;5.434;2022-10-31T13:59:45;43.28;;;17.20;;
61017;SDS011;48171;51.550;5.434;2022-10-31T14:02:16;38.75;;;16.25;;
61017;SDS011;48171;51.550;5.434;2022-10-31T14:04:51;33.72;;;15.60;;
61017;SDS011;48171;51.550;5.434;2022-10-31T14:07:21;29.75;;;15.40;;
61017;SDS011;48171;51.550;5.434;2022-10-31T14:09:51;85.35;;;55.88;;
61017;SDS011;48171;51.550;5.434;2022-10-31T14:12:30;39.25;;;17.65;;
61017;SDS011;48171;51.550;5.434;2022-10-31T14:15:13;37.55;;;17.00;;
61017;SDS011;48171;51.550;5.434;2022-10-31T14:17:45;38.53;;;18.15;;
61017;SDS011;48171;51.550;5.434;2022-10-31T14:22:56;40.85;;;18.65;;
61017;SDS011;48171;51.550;5.434;2022-10-31T14:25:26;42.00;;;17.73;;
61017;SDS011;48171;51.550;5.434;2022-10-31T14:27:51;34.90;;;17.90;;
61017;SDS011;48171;51.550;5.434;2022-10-31T14:30:19;38.70;;;18.13;;
61017;SDS011;48171;51.550;5.434;2022-10-31T14:47:07;39.75;;;17.67;;
61017;SDS011;48171;51.550;5.434;2022-10-31T14:49:59;37.75;;;17.42;;
61017;SDS011;48171;51.550;5.434;2022-10-31T14:52:28;39.42;;;19.10;;
61017;SDS011;48171;51.550;5.434;2022-10-31T14:54:53;43.25;;;17.83;;
61017;SDS011;48171;51.550;5.434;2022-10-31T14:57:25;40.45;;;19.20;;
61017;SDS011;48171;51.550;5.434;2022-10-31T14:59:56;41.30;;;18.25;;
61017;SDS011;48171;51.550;5.434;2022-10-31T15:02:27;36.35;;;17.75;;
61017;SDS011;48171;51.550;5.434;2022-10-31T15:04:59;39.28;;;18.15;;
61017;SDS011;48171;51.550;5.434;2022-10-31T15:07:26;39.08;;;18.60;;
61017;SDS011;48171;51.550;5.434;2022-10-31T15:09:59;41.20;;;18.80;;
61017;SDS011;48171;51.550;5.434;2022-10-31T15:12:29;37.78;;;18.00;;
61017;SDS011;48171;51.550;5.434;2022-10-31T15:14:56;33.47;;;17.75;;
61017;SDS011;48171;51.550;5.434;2022-10-31T15:17:22;40.63;;;18.75;;
61017;SDS011;48171;51.550;5.434;2022-10-31T15:19:49;38.03;;;18.05;;
61017;SDS011;48171;51.550;5.434;2022-10-31T15:22:17;39.20;;;18.02;;
61017;SDS011;48171;51.550;5.434;2022-10-31T15:24:44;40.08;;;18.27;;
61017;SDS011;48171;51.550;5.434;2022-10-31T15:27:14;40.42;;;17.75;;
61017;SDS011;48171;51.550;5.434;2022-10-31T15:29:48;33.55;;;17.15;;
61017;SDS011;48171;51.550;5.434;2022-10-31T15:32:19;37.35;;;17.88;;
61017;SDS011;48171;51.550;5.434;2022-10-31T15:34:48;42.10;;;18.40;;
61017;SDS011;48171;51.550;5.434;2022-10-31T15:37:16;39.38;;;17.13;;
61017;SDS011;48171;51.550;5.434;2022-10-31T15:39:43;36.45;;;17.75;;
61017;SDS011;48171;51.550;5.434;2022-10-31T15:42:23;36.33;;;16.77;;
61017;SDS011;48171;51.550;5.434;2022-10-31T15:45:02;37.03;;;18.00;;
61017;SDS011;48171;51.550;5.434;2022-10-31T15:47:49;33.05;;;16.65;;
61017;SDS011;48171;51.550;5.434;2022-10-31T15:50:24;40.42;;;18.05;;
61017;SDS011;48171;51.550;5.434;2022-10-31T15:52:55;35.72;;;17.23;;
61017;SDS011;48171;51.550;5.434;2022-10-31T15:55:22;35.67;;;16.77;;
61017;SDS011;48171;51.550;5.434;2022-10-31T15:57:57;35.22;;;16.38;;
61017;SDS011;48171;51.550;5.434;2022-10-31T16:00:26;39.58;;;18.00;;
61017;SDS011;48171;51.550;5.434;2022-10-31T16:03:06;33.63;;;16.55;;
61017;SDS011;48171;51.550;5.434;2022-10-31T16:05:38;40.35;;;16.58;;
61017;SDS011;48171;51.550;5.434;2022-10-31T16:10:55;34.25;;;16.73;;
61017;SDS011;48171;51.550;5.434;2022-10-31T16:13:36;40.95;;;17.38;;
61017;SDS011;48171;51.550;5.434;2022-10-31T16:16:15;37.00;;;17.25;;
61017;SDS011;48171;51.550;5.434;2022-10-31T16:18:42;36.58;;;16.38;;
61017;SDS011;48171;51.550;5.434;2022-10-31T16:21:08;37.28;;;17.45;;
61017;SDS011;48171;51.550;5.434;2022-10-31T16:23:35;31.17;;;16.25;;
61017;SDS011;48171;51.550;5.434;2022-10-31T16:26:06;32.17;;;15.77;;
61017;SDS011;48171;51.550;5.434;2022-10-31T16:28:32;35.60;;;16.45;;
61017;SDS011;48171;51.550;5.434;2022-10-31T16:30:58;33.65;;;16.02;;
61017;SDS011;48171;51.550;5.434;2022-10-31T16:33:34;35.33;;;16.92;;
61017;SDS011;48171;51.550;5.434;2022-10-31T16:36:28;34.40;;;15.70;;
61017;SDS011;48171;51.550;5.434;2022-10-31T16:38:52;31.08;;;15.50;;
61017;SDS011;48171;51.550;5.434;2022-10-31T16:41:19;36.17;;;15.68;;